createdAt,value
2017-02-20T08:57:27.825Z,8
2017-02-20T08:58:33.838Z,8
2017-02-20T08:59:39.856Z,8
2017-02-20T09:00:45.867Z,7.9
2017-02-20T09:01:51.889Z,8
2017-02-20T09:02:57.908Z,7.8
2017-02-20T09:04:03.931Z,7.9
2017-02-20T09:05:09.952Z,7.9
2017-02-20T09:06:15.312Z,7.9
2017-02-20T09:07:20.662Z,8
2017-02-20T09:08:26.683Z,8
2017-02-20T09:09:32.039Z,8.2
2017-02-20T09:10:37.392Z,8.2
2017-02-20T09:11:42.312Z,8.2
2017-02-20T09:12:48.331Z,8.3
2017-02-20T09:13:54.358Z,8.4
2017-02-20T09:15:00.367Z,8.2
2017-02-20T09:16:06.393Z,8
2017-02-20T09:17:12.416Z,8
2017-02-20T09:18:18.440Z,7.9
2017-02-20T09:19:24.454Z,8.1
2017-02-20T09:20:30.475Z,8.1
2017-02-20T09:21:36.494Z,8
2017-02-20T09:22:42.507Z,8
2017-02-20T09:23:48.531Z,7.9
2017-02-20T09:24:53.888Z,7.8
2017-02-20T09:25:59.902Z,7.8
2017-02-20T09:27:04.821Z,7.7
2017-02-20T09:28:10.840Z,7.7
2017-02-20T09:29:16.204Z,7.7
2017-02-20T09:30:22.219Z,7.9
2017-02-20T09:31:28.236Z,7.7
2017-02-20T09:32:34.253Z,7.7
2017-02-20T09:33:40.279Z,7.7
2017-02-20T09:34:46.301Z,7.6
2017-02-20T09:35:52.320Z,7.6
2017-02-20T09:36:58.333Z,7.6
2017-02-20T09:38:04.350Z,7.6
2017-02-20T09:39:10.373Z,7.7
2017-02-20T09:40:16.387Z,7.6
2017-02-20T09:41:22.399Z,7.6
2017-02-20T09:42:28.416Z,7.6
2017-02-20T09:43:34.435Z,7.6
2017-02-20T09:44:40.458Z,7.6
2017-02-20T09:45:46.476Z,7.6
2017-02-20T09:46:52.496Z,7.6
2017-02-20T09:47:58.519Z,7.6
2017-02-20T09:49:04.542Z,7.6
2017-02-20T09:50:10.562Z,7.5
2017-02-20T09:51:16.586Z,7.6
2017-02-20T09:52:21.935Z,7.6
2017-02-20T09:53:27.960Z,7.6
2017-02-20T09:54:33.977Z,7.6
2017-02-20T09:55:40.002Z,7.7
2017-02-20T09:56:46.026Z,7.7
2017-02-20T09:57:51.383Z,7.7
2017-02-20T09:58:57.389Z,7.7
2017-02-20T10:00:03.409Z,7.7
2017-02-20T10:01:09.430Z,7.7
2017-02-20T10:02:15.451Z,7.9
2017-02-20T10:03:20.371Z,7.9
2017-02-20T10:04:25.732Z,7.9
2017-02-20T10:05:31.090Z,7.8
2017-02-20T10:06:37.156Z,7.8
2017-02-20T10:07:42.482Z,7.8
2017-02-20T10:08:48.501Z,7.7
2017-02-20T10:09:54.546Z,7.7
2017-02-20T10:11:00.564Z,7.8
2017-02-20T10:12:06.589Z,7.8
2017-02-20T10:13:12.608Z,7.8
2017-02-20T10:14:18.629Z,7.8
2017-02-20T10:15:24.653Z,7.8
2017-02-20T10:16:29.572Z,7.7
2017-02-20T10:17:35.606Z,7.7
2017-02-20T10:18:41.612Z,7.7
2017-02-20T10:19:47.629Z,7.7
2017-02-20T10:20:53.651Z,7.6
2017-02-20T10:21:59.675Z,7.7
2017-02-20T10:23:05.696Z,7.7
2017-02-20T10:24:11.716Z,7.8
2017-02-20T10:25:17.069Z,7.7
2017-02-20T10:26:23.102Z,7.8
2017-02-20T10:27:29.111Z,7.8
2017-02-20T10:28:34.464Z,7.8
2017-02-20T10:29:40.481Z,7.8
2017-02-20T10:30:46.507Z,7.8
2017-02-20T10:31:50.768Z,7.8
2017-02-20T10:32:56.789Z,7.8
2017-02-20T10:34:02.805Z,7.9
2017-02-20T10:35:08.824Z,8
2017-02-20T10:36:14.849Z,7.9
2017-02-20T10:37:21.023Z,7.9
2017-02-20T10:38:27.046Z,7.9
2017-02-20T10:39:33.069Z,8
2017-02-20T10:40:39.084Z,7.9
2017-02-20T10:41:45.113Z,8
2017-02-20T10:42:51.123Z,7.9
2017-02-20T10:43:57.170Z,7.9
2017-02-20T10:45:02.092Z,7.9
2017-02-20T10:46:07.450Z,7.9
2017-02-20T10:47:13.462Z,7.8
2017-02-20T10:48:19.483Z,7.9
2017-02-20T10:49:25.509Z,7.9
2017-02-20T10:50:31.526Z,7.9
2017-02-20T10:51:37.534Z,7.9
2017-02-20T10:52:43.556Z,7.9
2017-02-20T10:53:49.574Z,7.9
2017-02-20T10:54:55.591Z,7.9
2017-02-20T10:56:01.615Z,8
2017-02-20T10:57:06.544Z,8
2017-02-20T10:58:12.555Z,7.9
2017-02-20T10:59:17.472Z,7.9
2017-02-20T11:00:23.545Z,8
2017-02-20T11:01:29.565Z,8
2017-02-20T11:02:35.591Z,8
2017-02-20T11:03:41.607Z,8
2017-02-20T11:04:46.958Z,8
2017-02-20T11:05:52.986Z,8
2017-02-20T11:06:59.007Z,8.1
2017-02-20T11:08:04.363Z,8
2017-02-20T11:09:10.379Z,8
2017-02-20T11:10:16.402Z,8
2017-02-20T11:11:22.425Z,8
2017-02-20T11:12:26.679Z,8.1
2017-02-20T11:13:32.704Z,8.1
2017-02-20T11:14:38.712Z,8.1
2017-02-20T11:15:44.736Z,8.1
2017-02-20T11:16:50.753Z,8.1
2017-02-20T11:17:56.770Z,8.1
2017-02-20T11:19:02.786Z,8.1
2017-02-20T11:20:08.802Z,8.1
2017-02-20T11:21:14.821Z,8.1
2017-02-20T11:22:20.833Z,8.1
2017-02-20T11:23:26.851Z,8.1
2017-02-20T11:24:32.864Z,8.1
2017-02-20T11:25:38.881Z,8.1
2017-02-20T11:26:44.901Z,8.1
2017-02-20T11:27:50.925Z,8.1
2017-02-20T11:28:56.280Z,8.1
2017-02-20T11:30:02.294Z,8.1
2017-02-20T11:31:08.311Z,8.1
2017-02-20T11:32:14.332Z,8.1
2017-02-20T11:33:20.355Z,8.1
2017-02-20T11:34:26.377Z,8.1
2017-02-20T11:35:31.285Z,8.1
2017-02-20T11:36:37.339Z,8.2
2017-02-20T11:37:43.358Z,8.3
2017-02-20T11:38:49.376Z,8.2
2017-02-20T11:39:55.398Z,8.3
2017-02-20T11:41:01.414Z,8.3
2017-02-20T11:42:06.771Z,8.2
2017-02-20T11:43:12.788Z,8.2
2017-02-20T11:44:18.806Z,8.2
2017-02-20T11:45:24.820Z,8.3
2017-02-20T11:46:30.840Z,8.3
2017-02-20T11:47:36.864Z,8.2
2017-02-20T11:48:42.902Z,8.3
2017-02-20T11:49:47.792Z,8.2
2017-02-20T11:50:53.153Z,8.2
2017-02-20T11:51:59.171Z,8.2
2017-02-20T11:53:05.185Z,8.2
2017-02-20T11:54:10.543Z,8.3
2017-02-20T11:55:16.557Z,8.3
2017-02-20T11:56:22.574Z,8.3
2017-02-20T11:57:27.491Z,8.3
2017-02-20T11:58:33.758Z,8.3
2017-02-20T11:59:39.763Z,8.3
2017-02-20T12:00:45.788Z,8.3
2017-02-20T12:01:51.804Z,8.3
2017-02-20T12:02:57.825Z,8.3
2017-02-20T12:04:03.837Z,8.3
2017-02-20T12:05:09.852Z,8.3
2017-02-20T12:06:15.866Z,8.3
2017-02-20T12:07:21.877Z,8.3
2017-02-20T12:08:27.889Z,8.3
2017-02-20T12:09:33.916Z,8.4
2017-02-20T12:10:39.925Z,8.4
2017-02-20T12:11:45.999Z,8.4
2017-02-20T12:12:52.014Z,8.4
2017-02-20T12:13:58.033Z,8.4
2017-02-20T12:15:04.042Z,8.4
2017-02-20T12:16:10.064Z,8.3
2017-02-20T12:17:15.584Z,8.4
2017-02-20T12:18:20.941Z,8.4
2017-02-20T12:19:26.952Z,8.4
2017-02-20T12:20:32.361Z,8.4
2017-02-20T12:21:38.375Z,8.4
2017-02-20T12:22:44.389Z,8.5
2017-02-20T12:23:50.409Z,8.7
2017-02-20T12:24:56.427Z,8.9
2017-02-20T12:26:02.447Z,8.9
2017-02-20T12:27:08.461Z,8.9
2017-02-20T12:28:14.478Z,9
2017-02-20T12:29:19.401Z,8.9
2017-02-20T12:30:25.418Z,8.8
2017-02-20T12:31:31.434Z,8.7
2017-02-20T12:32:36.789Z,8.6
2017-02-20T12:33:42.808Z,8.7
2017-02-20T12:34:48.834Z,8.6
2017-02-20T12:35:54.852Z,8.7
2017-02-20T12:37:00.862Z,8.7
2017-02-20T12:38:06.882Z,8.7
2017-02-20T12:39:12.904Z,8.6
2017-02-20T12:40:18.933Z,8.8
2017-02-20T12:41:24.943Z,8.8
2017-02-20T12:42:30.967Z,8.9
2017-02-20T12:43:36.986Z,8.9
2017-02-20T12:44:43.000Z,8.9
2017-02-20T12:45:49.011Z,8.9
2017-02-20T12:46:54.367Z,8.9
2017-02-20T12:48:00.383Z,8.9
2017-02-20T12:49:04.642Z,9
2017-02-20T12:50:10.657Z,8.9
2017-02-20T12:51:16.681Z,8.9
2017-02-20T12:52:22.727Z,8.9
2017-02-20T12:53:28.741Z,8.9
2017-02-20T12:54:34.758Z,9
2017-02-20T12:55:40.772Z,8.9
2017-02-20T12:56:46.254Z,8.9
2017-02-20T12:57:52.271Z,8.9
2017-02-20T12:58:58.285Z,9
2017-02-20T13:00:04.312Z,9
2017-02-20T13:01:10.334Z,9
2017-02-20T13:02:15.695Z,9
2017-02-20T13:03:21.976Z,9
2017-02-20T13:04:28.000Z,9
2017-02-20T13:05:34.010Z,9.1
2017-02-20T13:06:39.528Z,9.1
2017-02-20T13:07:45.545Z,8.9
2017-02-20T13:08:51.560Z,8.9
2017-02-20T13:09:57.585Z,8.8
2017-02-20T13:11:02.502Z,8.8
2017-02-20T13:12:07.856Z,8.8
2017-02-20T13:13:13.874Z,8.8
2017-02-20T13:14:19.892Z,8.9
2017-02-20T13:15:25.908Z,8.9
2017-02-20T13:16:31.921Z,8.9
2017-02-20T13:17:38.062Z,8.9
2017-02-20T13:18:44.001Z,9
2017-02-20T13:19:50.018Z,8.9
2017-02-20T13:20:56.027Z,8.9
2017-02-20T13:22:02.046Z,8.9
2017-02-20T13:23:07.403Z,8.9
2017-02-20T13:24:13.424Z,8.9
2017-02-20T13:25:18.375Z,8.9
2017-02-20T13:26:24.413Z,8.9
2017-02-20T13:27:30.459Z,8.9
2017-02-20T13:28:36.451Z,8.9
2017-02-20T13:29:42.619Z,8.9
2017-02-20T13:30:48.640Z,8.9
2017-02-20T13:31:54.662Z,9
2017-02-20T13:33:00.681Z,8.9
2017-02-20T13:34:06.696Z,9
2017-02-20T13:35:12.721Z,9
2017-02-20T13:36:18.738Z,8.9
2017-02-20T13:37:24.903Z,8.9
2017-02-20T13:38:31.008Z,9
2017-02-20T13:39:37.030Z,9
2017-02-20T13:40:43.045Z,9
2017-02-20T13:41:49.070Z,9
2017-02-20T13:42:55.084Z,9
2017-02-20T13:44:01.107Z,9
2017-02-20T13:45:07.114Z,9
2017-02-20T13:46:13.124Z,9
2017-02-20T13:47:18.479Z,9
2017-02-20T13:48:23.836Z,9
2017-02-20T13:49:29.852Z,9
2017-02-20T13:50:35.873Z,9
2017-02-20T13:51:41.900Z,9
2017-02-20T13:52:47.921Z,9
2017-02-20T13:53:53.929Z,8.9
2017-02-20T13:55:00.039Z,8.9
2017-02-20T13:56:06.058Z,9
2017-02-20T13:57:12.069Z,8.9
2017-02-20T13:58:16.993Z,9
2017-02-20T13:59:23.004Z,9
2017-02-20T14:00:29.025Z,9
2017-02-20T14:01:35.050Z,8.9
2017-02-20T14:02:41.069Z,9
2017-02-20T14:03:47.086Z,8.9
2017-02-20T14:04:53.095Z,8.9
2017-02-20T14:05:59.214Z,9
2017-02-20T14:07:05.231Z,9
2017-02-20T14:08:11.247Z,9
2017-02-20T14:09:17.271Z,9
2017-02-20T14:10:22.623Z,9
2017-02-20T14:11:28.642Z,9
2017-02-20T14:12:34.666Z,9
2017-02-20T14:13:40.684Z,9
2017-02-20T14:14:46.705Z,9
2017-02-20T14:15:52.724Z,9
2017-02-20T14:16:59.290Z,9
2017-02-20T14:18:05.050Z,9
2017-02-20T14:19:11.052Z,9.1
2017-02-20T14:20:17.088Z,9
2017-02-20T14:21:22.458Z,9
2017-02-20T14:22:28.485Z,9
2017-02-20T14:23:34.015Z,9.1
2017-02-20T14:24:40.030Z,9
2017-02-20T14:25:45.400Z,9
2017-02-20T14:26:51.400Z,9
2017-02-20T14:27:57.428Z,9
2017-02-20T14:29:03.473Z,9
2017-02-20T14:30:09.487Z,9.1
2017-02-20T14:31:14.840Z,9.1
2017-02-20T14:32:20.861Z,9
2017-02-20T14:33:26.213Z,9
2017-02-20T14:34:32.251Z,9.1
2017-02-20T14:35:38.448Z,9
2017-02-20T14:36:44.470Z,9
2017-02-20T14:37:50.492Z,9
2017-02-20T14:38:56.521Z,9.1
2017-02-20T14:40:02.528Z,9
2017-02-20T14:41:08.541Z,9.1
2017-02-20T14:42:14.561Z,9
2017-02-20T14:43:20.580Z,9.1
2017-02-20T14:44:26.603Z,9
2017-02-20T14:45:32.619Z,9.1
2017-02-20T14:46:38.715Z,9.1
2017-02-20T14:47:44.684Z,9.1
2017-02-20T14:48:50.703Z,9.1
2017-02-20T14:49:56.759Z,9
2017-02-20T14:51:02.889Z,9.1
2017-02-20T14:52:08.238Z,9.1
2017-02-20T14:53:14.250Z,9
2017-02-20T14:54:20.291Z,9.1
2017-02-20T14:55:25.218Z,9.1
2017-02-20T14:56:31.249Z,9
2017-02-20T14:57:37.263Z,9.1
2017-02-20T14:58:42.627Z,9.1
2017-02-20T14:59:47.538Z,9.1
2017-02-20T15:00:53.587Z,9.1
2017-02-20T15:01:59.608Z,9.1
2017-02-20T15:03:05.629Z,9.1
2017-02-20T15:04:11.643Z,9.1
2017-02-20T15:05:17.660Z,9.2
2017-02-20T15:06:23.682Z,9.1
2017-02-20T15:07:29.693Z,9.1
2017-02-20T15:08:35.712Z,9.1
2017-02-20T15:09:41.729Z,9.1
2017-02-20T15:10:47.749Z,9.1
2017-02-20T15:11:53.774Z,9.1
2017-02-20T15:12:59.794Z,9.1
2017-02-20T15:14:05.808Z,9.1
2017-02-20T15:15:11.163Z,9.1
2017-02-20T15:16:17.189Z,9.1
2017-02-20T15:17:21.879Z,9.1
2017-02-20T15:18:27.900Z,9.2
2017-02-20T15:19:33.919Z,9.1
2017-02-20T15:20:39.939Z,9.1
2017-02-20T15:21:46.420Z,9.1
2017-02-20T15:22:52.436Z,9.2
2017-02-20T15:23:58.150Z,9.2
2017-02-20T15:25:04.167Z,9.1
2017-02-20T15:26:10.188Z,9.1
2017-02-20T15:27:16.218Z,9.2
2017-02-20T15:28:22.231Z,9.2
2017-02-20T15:29:28.247Z,9.2
2017-02-20T15:30:34.270Z,9.2
2017-02-20T15:31:40.281Z,9.2
2017-02-20T15:32:46.287Z,9.2
2017-02-20T15:33:52.301Z,9.3
2017-02-20T15:34:58.319Z,9.3
2017-02-20T15:36:03.678Z,9.3
2017-02-20T15:37:09.690Z,9.3
2017-02-20T15:38:15.703Z,9.3
2017-02-20T15:39:21.721Z,9.4
2017-02-20T15:40:27.737Z,9.4
2017-02-20T15:41:33.746Z,9.3
2017-02-20T15:42:38.001Z,9.3
2017-02-20T15:43:44.019Z,9.3
2017-02-20T15:44:50.038Z,9.3
2017-02-20T15:45:56.054Z,9.3
2017-02-20T15:47:02.076Z,9.3
2017-02-20T15:48:08.100Z,9.3
2017-02-20T15:49:14.113Z,9.3
2017-02-20T15:50:20.128Z,9.3
2017-02-20T15:51:26.152Z,9.3
2017-02-20T15:52:32.173Z,9.3
2017-02-20T15:53:37.091Z,9.3
2017-02-20T15:54:43.113Z,9.3
2017-02-20T15:55:49.132Z,9.3
2017-02-20T15:56:55.152Z,9.3
2017-02-20T15:58:01.166Z,9.3
2017-02-20T15:59:07.183Z,9.3
2017-02-20T16:00:13.192Z,9.3
2017-02-20T16:01:19.213Z,9.3
2017-02-20T16:02:24.565Z,9.3
2017-02-20T16:03:30.587Z,9.3
2017-02-20T16:04:35.279Z,9.3
2017-02-20T16:05:41.301Z,9.4
2017-02-20T16:06:47.325Z,9.4
2017-02-20T16:07:53.344Z,9.3
2017-02-20T16:08:59.354Z,9.3
2017-02-20T16:10:05.367Z,9.3
2017-02-20T16:11:11.380Z,9.4
2017-02-20T16:12:17.393Z,9.4
2017-02-20T16:13:23.419Z,9.4
2017-02-20T16:14:28.343Z,9.4
2017-02-20T16:15:34.361Z,9.3
2017-02-20T16:16:40.380Z,9.3
2017-02-20T16:17:46.407Z,9.3
2017-02-20T16:18:52.426Z,9.4
2017-02-20T16:19:58.439Z,9.4
2017-02-20T16:21:02.693Z,9.4
2017-02-20T16:22:08.715Z,9.4
2017-02-20T16:23:14.732Z,9.4
2017-02-20T16:24:20.744Z,9.4
2017-02-20T16:25:26.765Z,9.4
2017-02-20T16:26:32.781Z,9.4
2017-02-20T16:27:38.799Z,9.4
2017-02-20T16:28:44.816Z,9.4
2017-02-20T16:29:50.836Z,9.4
2017-02-20T16:30:56.858Z,9.4
2017-02-20T16:32:02.873Z,9.4
2017-02-20T16:33:08.887Z,9.4
2017-02-20T16:34:14.908Z,9.4
2017-02-20T16:35:20.929Z,9.4
2017-02-20T16:36:26.943Z,9.5
2017-02-20T16:37:32.961Z,9.4
2017-02-20T16:38:38.315Z,9.5
2017-02-20T16:39:44.336Z,9.5
2017-02-20T16:40:50.353Z,9.5
2017-02-20T16:41:55.714Z,9.5
2017-02-20T16:43:01.734Z,9.5
2017-02-20T16:44:07.755Z,9.5
2017-02-20T16:45:13.770Z,9.6
2017-02-20T16:46:19.784Z,9.5
2017-02-20T16:47:25.802Z,9.5
2017-02-20T16:48:31.159Z,9.5
2017-02-20T16:49:37.176Z,9.5
2017-02-20T16:50:43.187Z,9.5
2017-02-20T16:51:49.207Z,9.6
2017-02-20T16:52:54.126Z,9.6
2017-02-20T16:54:00.148Z,9.6
2017-02-20T16:55:05.501Z,9.6
2017-02-20T16:56:11.523Z,9.6
2017-02-20T16:57:17.540Z,9.6
2017-02-20T16:58:22.896Z,9.6
2017-02-20T16:59:28.917Z,9.6
2017-02-20T17:00:34.927Z,9.6
2017-02-20T17:01:40.942Z,9.6
2017-02-20T17:02:46.962Z,9.6
2017-02-20T17:03:52.974Z,9.6
2017-02-20T17:04:58.989Z,9.7
2017-02-20T17:06:05.012Z,9.6
2017-02-20T17:07:11.032Z,9.6
2017-02-20T17:08:17.044Z,9.6
2017-02-20T17:09:23.057Z,9.6
2017-02-20T17:10:29.078Z,9.6
2017-02-20T17:11:35.096Z,9.7
2017-02-20T17:12:40.453Z,9.6
2017-02-20T17:13:46.475Z,9.6
2017-02-20T17:14:52.496Z,9.7
2017-02-20T17:15:58.507Z,9.7
2017-02-20T17:17:04.523Z,9.7
2017-02-20T17:18:10.541Z,9.7
2017-02-20T17:19:15.901Z,9.6
2017-02-20T17:20:21.911Z,9.7
2017-02-20T17:21:26.824Z,9.7
2017-02-20T17:22:32.841Z,9.7
2017-02-20T17:23:38.862Z,9.7
2017-02-20T17:24:44.885Z,9.7
2017-02-20T17:25:50.898Z,9.7
2017-02-20T17:26:56.921Z,9.7
2017-02-20T17:28:02.940Z,9.7
2017-02-20T17:29:08.957Z,9.7
2017-02-20T17:30:14.974Z,9.7
2017-02-20T17:31:20.998Z,9.7
2017-02-20T17:32:27.012Z,9.7
2017-02-20T17:33:33.038Z,9.7
2017-02-20T17:34:39.045Z,9.7
2017-02-20T17:35:45.063Z,9.7
2017-02-20T17:36:51.076Z,9.7
2017-02-20T17:37:57.093Z,9.7
2017-02-20T17:39:03.114Z,9.7
2017-02-20T17:40:09.135Z,9.7
2017-02-20T17:41:15.147Z,9.8
2017-02-20T17:42:21.174Z,9.8
2017-02-20T17:43:27.197Z,9.8
2017-02-20T17:44:33.216Z,9.7
2017-02-20T17:45:39.234Z,9.7
2017-02-20T17:46:45.240Z,9.8
2017-02-20T17:47:51.254Z,9.8
2017-02-20T17:48:57.267Z,9.8
2017-02-20T17:50:03.289Z,9.7
2017-02-20T17:51:09.296Z,9.8
2017-02-20T17:52:15.318Z,9.8
2017-02-20T17:53:20.670Z,9.8
2017-02-20T17:54:26.895Z,9.8
2017-02-20T17:55:32.909Z,9.8
2017-02-20T17:56:38.921Z,9.8
2017-02-20T17:57:44.940Z,9.7
2017-02-20T17:58:50.968Z,9.7
2017-02-20T17:59:56.984Z,9.8
2017-02-20T18:01:02.999Z,9.8
2017-02-20T18:02:09.020Z,9.8
2017-02-20T18:03:15.034Z,9.8
2017-02-20T18:04:21.056Z,9.8
2017-02-20T18:05:27.071Z,9.8
2017-02-20T18:06:33.089Z,9.8
2017-02-20T18:07:39.101Z,9.8
2017-02-20T18:08:45.123Z,9.8
2017-02-20T18:09:51.138Z,9.8
2017-02-20T18:10:56.059Z,9.8
2017-02-20T18:12:02.081Z,9.8
2017-02-20T18:13:08.091Z,9.9
2017-02-20T18:14:14.112Z,9.8
2017-02-20T18:15:20.130Z,9.8
2017-02-20T18:16:26.145Z,9.9
2017-02-20T18:17:32.160Z,9.8
2017-02-20T18:18:38.181Z,9.8
2017-02-20T18:19:44.195Z,9.8
2017-02-20T18:20:50.213Z,9.8
2017-02-20T18:21:56.235Z,9.9
2017-02-20T18:23:02.252Z,9.9
2017-02-20T18:24:08.267Z,9.9
2017-02-20T18:25:14.286Z,9.9
2017-02-20T18:26:19.207Z,9.9
2017-02-20T18:27:25.221Z,9.9
2017-02-20T18:28:31.237Z,9.9
2017-02-20T18:29:37.254Z,9.9
2017-02-20T18:30:43.280Z,9.9
2017-02-20T18:31:48.196Z,9.9
2017-02-20T18:32:54.216Z,9.9
2017-02-20T18:34:00.231Z,9.9
2017-02-20T18:35:05.588Z,9.9
2017-02-20T18:36:11.606Z,9.9
2017-02-20T18:37:17.630Z,9.9
2017-02-20T18:38:23.638Z,9.9
2017-02-20T18:39:28.989Z,9.9
2017-02-20T18:40:35.005Z,9.9
2017-02-20T18:41:41.027Z,9.9
2017-02-20T18:42:47.051Z,9.9
2017-02-20T18:43:53.070Z,9.9
2017-02-20T18:44:59.083Z,9.9
2017-02-20T18:46:03.995Z,9.9
2017-02-20T18:47:10.016Z,9.9
2017-02-20T18:48:15.373Z,9.9
2017-02-20T18:49:21.386Z,9.9
2017-02-20T18:50:27.410Z,9.9
2017-02-20T18:51:33.435Z,9.9
2017-02-20T18:52:39.452Z,10
2017-02-20T18:53:45.461Z,9.9
2017-02-20T18:54:51.483Z,9.9
2017-02-20T18:55:57.495Z,9.9
2017-02-20T18:57:03.518Z,9.9
2017-02-20T18:58:08.870Z,9.9
2017-02-20T18:59:14.887Z,9.9
2017-02-20T19:00:20.904Z,9.9
2017-02-20T19:01:26.925Z,9.9
2017-02-20T19:02:32.293Z,9.9
2017-02-20T19:03:38.305Z,9.9
2017-02-20T19:04:44.327Z,9.9
2017-02-20T19:05:50.335Z,9.9
2017-02-20T19:06:55.249Z,9.9
2017-02-20T19:08:01.266Z,9.9
2017-02-20T19:09:07.285Z,9.9
2017-02-20T19:10:13.308Z,10
2017-02-20T19:11:19.323Z,10
2017-02-20T19:12:25.505Z,9.9
2017-02-20T19:13:29.764Z,9.9
2017-02-20T19:14:35.777Z,9.9
2017-02-20T19:15:41.988Z,10
2017-02-20T19:16:48.007Z,10
2017-02-20T19:17:54.031Z,10
2017-02-20T19:19:00.049Z,10
2017-02-20T19:20:05.415Z,10
2017-02-20T19:21:11.429Z,10
2017-02-20T19:22:17.449Z,10
2017-02-20T19:23:23.466Z,10
2017-02-20T19:24:28.379Z,10
2017-02-20T19:25:34.399Z,10
2017-02-20T19:26:40.420Z,10
2017-02-20T19:27:46.437Z,10
2017-02-20T19:28:52.451Z,10
2017-02-20T19:29:58.471Z,10
2017-02-20T19:31:03.827Z,10.1
2017-02-20T19:32:09.848Z,10
2017-02-20T19:33:15.863Z,10
2017-02-20T19:34:21.881Z,10
2017-02-20T19:35:27.907Z,10
2017-02-20T19:36:33.268Z,10
2017-02-20T19:37:39.290Z,10
2017-02-20T19:38:45.313Z,10
2017-02-20T19:39:51.338Z,10
2017-02-20T19:40:56.690Z,10
2017-02-20T19:42:02.720Z,10
2017-02-20T19:43:08.731Z,10
2017-02-20T19:44:14.754Z,10
2017-02-20T19:45:20.773Z,10
2017-02-20T19:46:26.793Z,10
2017-02-20T19:47:32.810Z,10.1
2017-02-20T19:48:38.841Z,10
2017-02-20T19:49:44.860Z,10
2017-02-20T19:50:50.876Z,10
2017-02-20T19:51:56.230Z,10
2017-02-20T19:53:02.246Z,10
2017-02-20T19:54:08.278Z,10
2017-02-20T19:55:14.291Z,10
2017-02-20T19:56:19.203Z,10
2017-02-20T19:57:25.225Z,10
2017-02-20T19:58:31.243Z,10
2017-02-20T19:59:37.267Z,10
2017-02-20T20:00:43.281Z,9.9
2017-02-20T20:01:49.303Z,9.9
2017-02-20T20:02:55.321Z,9.9
2017-02-20T20:04:01.341Z,9.9
2017-02-20T20:05:07.360Z,9.9
2017-02-20T20:06:13.380Z,9.9
2017-02-20T20:07:19.394Z,9.9
2017-02-20T20:08:25.412Z,9.9
2017-02-20T20:09:31.432Z,9.9
2017-02-20T20:10:37.453Z,9.9
2017-02-20T20:11:43.470Z,9.9
2017-02-20T20:12:48.386Z,9.9
2017-02-20T20:13:54.403Z,9.9
2017-02-20T20:15:00.425Z,9.9
2017-02-20T20:16:06.440Z,9.9
2017-02-20T20:17:12.447Z,9.9
2017-02-20T20:18:18.480Z,9.9
2017-02-20T20:19:23.833Z,9.8
2017-02-20T20:20:29.855Z,9.8
2017-02-20T20:21:35.201Z,9.8
2017-02-20T20:22:41.228Z,9.8
2017-02-20T20:23:47.245Z,9.9
2017-02-20T20:24:52.604Z,9.9
2017-02-20T20:25:58.615Z,9.8
2017-02-20T20:27:04.637Z,9.8
2017-02-20T20:28:09.557Z,9.8
2017-02-20T20:29:15.572Z,9.8
2017-02-20T20:30:21.609Z,9.8
2017-02-20T20:31:27.604Z,9.8
2017-02-20T20:32:32.958Z,9.8
2017-02-20T20:33:38.974Z,9.8
2017-02-20T20:34:44.331Z,9.7
2017-02-20T20:35:50.349Z,9.8
2017-02-20T20:36:55.698Z,9.8
2017-02-20T20:38:01.718Z,9.8
2017-02-20T20:39:07.739Z,9.7
2017-02-20T20:40:13.093Z,9.8
2017-02-20T20:41:18.451Z,9.8
2017-02-20T20:42:24.467Z,9.7
2017-02-20T20:43:29.824Z,9.7
2017-02-20T20:44:35.836Z,9.7
2017-02-20T20:45:41.863Z,9.7
2017-02-20T20:46:47.872Z,9.7
2017-02-20T20:47:53.892Z,9.8
2017-02-20T20:48:59.908Z,9.8
2017-02-20T20:50:05.934Z,9.8
2017-02-20T20:51:10.846Z,9.8
2017-02-20T20:52:16.855Z,9.7
2017-02-20T20:53:22.876Z,9.8
2017-02-20T20:54:28.899Z,9.7
2017-02-20T20:55:34.237Z,9.7
2017-02-20T20:56:40.248Z,9.7
2017-02-20T20:57:46.272Z,9.7
2017-02-20T20:58:52.289Z,9.7
2017-02-20T20:59:57.650Z,9.7
2017-02-20T21:01:02.567Z,9.7
2017-02-20T21:02:08.587Z,9.7
2017-02-20T21:03:14.604Z,9.7
2017-02-20T21:04:20.622Z,9.7
2017-02-20T21:05:25.983Z,9.7
2017-02-20T21:06:31.997Z,9.6
2017-02-20T21:07:38.017Z,9.6
2017-02-20T21:08:44.034Z,9.5
2017-02-20T21:09:50.052Z,9.5
2017-02-20T21:10:56.074Z,9.5
2017-02-20T21:12:00.983Z,9.5
2017-02-20T21:13:06.996Z,9.6
2017-02-20T21:14:13.020Z,9.6
2017-02-20T21:15:19.034Z,9.5
2017-02-20T21:16:25.057Z,9.5
2017-02-20T21:17:31.072Z,9.5
2017-02-20T21:18:37.092Z,9.5
2017-02-20T21:19:43.115Z,9.5
2017-02-20T21:20:48.039Z,9.5
2017-02-20T21:21:54.048Z,9.5
2017-02-20T21:23:00.065Z,9.5
2017-02-20T21:24:06.082Z,9.4
2017-02-20T21:25:12.100Z,9.4
2017-02-20T21:26:18.112Z,9.5
2017-02-20T21:27:23.034Z,9.5
2017-02-20T21:28:29.048Z,9.4
2017-02-20T21:29:35.076Z,9.4
2017-02-20T21:30:41.098Z,9.4
2017-02-20T21:31:47.113Z,9.4
2017-02-20T21:32:53.131Z,9.4
2017-02-20T21:33:59.149Z,9.4
2017-02-20T21:35:05.161Z,9.5
2017-02-20T21:36:11.173Z,9.5
2017-02-20T21:37:17.186Z,9.4
2017-02-20T21:38:22.105Z,9.5
2017-02-20T21:39:28.123Z,9.4
2017-02-20T21:40:34.141Z,9.4
2017-02-20T21:41:40.156Z,9.4
2017-02-20T21:42:46.172Z,9.4
2017-02-20T21:43:51.529Z,9.4
2017-02-20T21:44:57.549Z,9.4
2017-02-20T21:46:03.567Z,9.4
2017-02-20T21:47:09.583Z,9.3
2017-02-20T21:48:14.497Z,9.3
2017-02-20T21:49:20.516Z,9.3
2017-02-20T21:50:25.432Z,9.3
2017-02-20T21:51:31.459Z,9.2
2017-02-20T21:52:37.471Z,9.2
2017-02-20T21:53:42.820Z,9.2
2017-02-20T21:54:47.748Z,9.1
2017-02-20T21:55:53.766Z,9.2
2017-02-20T21:56:59.112Z,9.2
2017-02-20T21:58:04.470Z,9.2
2017-02-20T21:59:10.490Z,9.1
2017-02-20T22:00:16.512Z,9.1
2017-02-20T22:01:21.864Z,9
2017-02-20T22:02:27.877Z,9
2017-02-20T22:03:33.898Z,9
2017-02-20T22:04:39.919Z,9.1
2017-02-20T22:05:45.936Z,9.1
2017-02-20T22:06:51.951Z,9
2017-02-20T22:07:57.970Z,9
2017-02-20T22:09:03.987Z,9
2017-02-20T22:10:10.005Z,9
2017-02-20T22:11:16.024Z,9
2017-02-20T22:12:22.047Z,9.1
2017-02-20T22:13:28.058Z,9
2017-02-20T22:14:34.077Z,9
2017-02-20T22:15:40.097Z,8.9
2017-02-20T22:16:45.451Z,8.9
2017-02-20T22:17:51.465Z,8.9
2017-02-20T22:18:57.479Z,8.9
2017-02-20T22:20:02.400Z,8.9
2017-02-20T22:21:08.407Z,8.9
2017-02-20T22:22:14.419Z,8.9
2017-02-20T22:23:19.334Z,8.8
2017-02-20T22:24:25.357Z,8.8
2017-02-20T22:25:31.375Z,8.8
2017-02-20T22:26:37.397Z,8.7
2017-02-20T22:27:43.413Z,8.8
2017-02-20T22:28:49.435Z,8.8
2017-02-20T22:29:54.791Z,8.8
2017-02-20T22:31:00.824Z,8.8
2017-02-20T22:32:06.827Z,8.7
2017-02-20T22:33:12.846Z,8.7
2017-02-20T22:34:17.538Z,8.7
2017-02-20T22:35:23.558Z,8.8
2017-02-20T22:36:28.246Z,8.8
2017-02-20T22:37:34.264Z,8.7
2017-02-20T22:38:40.292Z,8.7
2017-02-20T22:39:45.650Z,8.7
2017-02-20T22:40:51.004Z,8.7
2017-02-20T22:41:57.019Z,8.7
2017-02-20T22:43:03.039Z,8.7
2017-02-20T22:44:09.064Z,8.8
2017-02-20T22:45:15.089Z,8.7
2017-02-20T22:46:21.108Z,8.7
2017-02-20T22:47:27.129Z,8.6
2017-02-20T22:48:32.485Z,8.6
2017-02-20T22:49:38.505Z,8.7
2017-02-20T22:50:44.529Z,8.6
2017-02-20T22:51:50.538Z,8.7
2017-02-20T22:52:57.861Z,8.6
2017-02-20T22:54:04.261Z,8.6
2017-02-20T22:55:10.331Z,8.7
2017-02-20T22:56:16.347Z,8.6
2017-02-20T22:57:22.362Z,8.7
2017-02-20T22:58:28.385Z,8.6
2017-02-20T22:59:34.408Z,8.6
2017-02-20T23:00:40.429Z,8.6
2017-02-20T23:01:46.452Z,8.6
2017-02-20T23:02:52.709Z,8.6
2017-02-20T23:03:58.588Z,8.6
2017-02-20T23:05:05.133Z,8.6
2017-02-20T23:06:11.149Z,8.6
2017-02-20T23:07:17.165Z,8.6
2017-02-20T23:08:23.192Z,8.6
2017-02-20T23:09:29.207Z,8.6
2017-02-20T23:10:35.231Z,8.6
2017-02-20T23:11:41.283Z,8.6
2017-02-20T23:12:54.761Z,8.5
2017-02-20T23:15:09.493Z,8.6
2017-02-20T23:16:15.807Z,8.6
2017-02-20T23:17:21.824Z,8.6
2017-02-20T23:18:27.836Z,8.6
2017-02-20T23:19:33.857Z,8.5
2017-02-20T23:20:39.870Z,8.5
2017-02-20T23:21:45.891Z,8.5
2017-02-20T23:22:51.913Z,8.5
2017-02-20T23:23:57.928Z,8.5
2017-02-20T23:25:03.944Z,8.5
2017-02-20T23:26:09.963Z,8.5
2017-02-20T23:27:14.222Z,8.6
2017-02-20T23:28:20.236Z,8.6
2017-02-20T23:29:26.252Z,8.5
2017-02-20T23:30:32.274Z,8.5
2017-02-20T23:31:38.302Z,8.4
2017-02-20T23:32:43.646Z,8.5
2017-02-20T23:34:58.381Z,8.5
2017-02-20T23:36:04.394Z,8.4
2017-02-20T23:37:10.411Z,8.4
2017-02-20T23:38:16.422Z,8.4
2017-02-20T23:40:31.164Z,8.4
2017-02-20T23:41:37.176Z,8.4
2017-02-20T23:42:43.193Z,8.4
2017-02-20T23:43:49.311Z,8.4
2017-02-20T23:44:55.261Z,8.4
2017-02-20T23:46:01.273Z,8.4
2017-02-20T23:47:07.493Z,8.4
2017-02-20T23:48:13.513Z,8.4
2017-02-20T23:49:19.531Z,8.4
2017-02-20T23:50:28.844Z,8.5
2017-02-20T23:51:34.853Z,8.3
2017-02-20T23:52:40.873Z,8.3
2017-02-20T23:53:46.888Z,8.4
2017-02-20T23:54:52.906Z,8.3
2017-02-20T23:55:57.824Z,8.3
2017-02-20T23:57:03.186Z,8.3
2017-02-20T23:58:09.192Z,8.3
2017-02-20T23:59:15.215Z,8.3
